createdAt,value
2023-02-15T00:00:35.165Z,26.90
2023-02-15T00:03:25.907Z,27.00
2023-02-15T00:05:55.339Z,26.80
2023-02-15T00:08:24.910Z,25.13
2023-02-15T00:13:23.222Z,21.90
2023-02-15T00:15:52.523Z,29.83
2023-02-15T00:18:24.813Z,24.42
2023-02-15T00:20:54.241Z,24.77
2023-02-15T00:23:23.274Z,21.55
2023-02-15T00:25:52.810Z,25.55
2023-02-15T00:28:22.869Z,27.80
2023-02-15T00:30:52.330Z,24.65
2023-02-15T00:33:21.674Z,22.85
2023-02-15T00:35:59.606Z,27.33
2023-02-15T00:38:29.923Z,25.98
2023-02-15T00:41:00.997Z,28.77
2023-02-15T00:43:31.611Z,23.27
2023-02-15T00:46:01.903Z,25.88
2023-02-15T00:48:31.201Z,27.25
2023-02-15T00:51:03.421Z,25.10
2023-02-15T00:53:33.092Z,23.95
2023-02-15T00:56:03.406Z,24.80
2023-02-15T00:58:33.205Z,26.10
2023-02-15T01:01:07.476Z,27.05
2023-02-15T01:03:37.130Z,22.58
2023-02-15T01:06:08.007Z,23.60
2023-02-15T01:08:37.620Z,26.10
2023-02-15T01:11:08.575Z,24.33
2023-02-15T01:13:38.221Z,25.08
2023-02-15T01:16:09.573Z,24.65
2023-02-15T01:18:39.201Z,20.35
2023-02-15T01:21:14.792Z,26.88
2023-02-15T01:23:46.855Z,27.08
2023-02-15T01:26:17.435Z,23.40
2023-02-15T01:28:47.378Z,24.35
2023-02-15T01:31:18.682Z,27.30
2023-02-15T01:33:48.670Z,25.30
2023-02-15T01:36:19.723Z,26.33
2023-02-15T01:38:49.209Z,23.48
2023-02-15T01:41:28.192Z,24.65
2023-02-15T01:43:59.801Z,23.98
2023-02-15T01:46:35.390Z,27.08
2023-02-15T01:49:10.135Z,27.50
2023-02-15T01:51:43.860Z,27.33
2023-02-15T01:54:21.001Z,30.27
2023-02-15T01:59:25.624Z,29.23
2023-02-15T02:02:00.894Z,29.40
2023-02-15T02:04:36.033Z,32.28
2023-02-15T02:07:08.603Z,32.65
2023-02-15T02:09:39.092Z,30.75
2023-02-15T02:12:09.365Z,33.17
2023-02-15T02:14:39.718Z,31.35
2023-02-15T02:17:16.440Z,33.08
2023-02-15T02:20:24.459Z,29.85
2023-02-15T02:23:21.019Z,26.70
2023-02-15T02:26:29.334Z,32.22
2023-02-15T02:29:34.258Z,27.38
2023-02-15T02:32:28.928Z,29.30
2023-02-15T02:35:03.649Z,30.92
2023-02-15T02:37:39.720Z,30.40
2023-02-15T02:40:18.240Z,28.83
2023-02-15T02:42:56.571Z,29.60
2023-02-15T02:45:30.623Z,31.58
2023-02-15T02:48:05.387Z,31.10
2023-02-15T02:50:36.248Z,40.72
2023-02-15T02:53:05.625Z,34.17
2023-02-15T02:55:41.632Z,34.20
2023-02-15T02:58:16.671Z,36.67
2023-02-15T03:00:50.527Z,35.25
2023-02-15T03:03:27.703Z,41.72
2023-02-15T03:06:02.581Z,35.55
2023-02-15T03:08:40.322Z,35.90
2023-02-15T03:11:11.118Z,33.70
2023-02-15T03:13:41.684Z,28.75
2023-02-15T03:16:29.665Z,34.53
2023-02-15T03:19:02.570Z,36.40
2023-02-15T03:21:41.113Z,34.78
2023-02-15T03:24:16.304Z,37.13
2023-02-15T03:26:50.394Z,32.08
2023-02-15T03:29:22.456Z,31.63
2023-02-15T03:32:01.761Z,32.08
2023-02-15T03:34:31.622Z,31.92
2023-02-15T03:39:42.995Z,27.80
2023-02-15T03:42:18.683Z,26.60
2023-02-15T03:44:53.676Z,28.15
2023-02-15T03:47:27.463Z,30.58
2023-02-15T03:50:00.272Z,32.50
2023-02-15T03:52:33.151Z,32.70
2023-02-15T03:55:02.325Z,30.58
2023-02-15T03:57:49.908Z,28.85
2023-02-15T04:00:39.791Z,27.70
2023-02-15T04:03:23.249Z,26.75
2023-02-15T04:05:52.429Z,25.85
2023-02-15T04:08:43.342Z,28.52
2023-02-15T04:11:11.888Z,33.78
2023-02-15T04:13:41.726Z,24.92
2023-02-15T04:16:10.251Z,29.75
2023-02-15T04:19:00.576Z,27.75
2023-02-15T04:21:49.068Z,27.33
2023-02-15T04:24:37.986Z,28.73
2023-02-15T04:27:07.706Z,25.02
2023-02-15T04:29:37.192Z,24.88
2023-02-15T04:32:07.749Z,29.00
2023-02-15T04:34:37.283Z,30.17
2023-02-15T04:37:06.450Z,35.30
2023-02-15T04:39:37.292Z,30.95
2023-02-15T04:42:06.581Z,24.60
2023-02-15T04:44:35.915Z,28.05
2023-02-15T04:47:05.096Z,25.88
2023-02-15T04:49:34.451Z,27.13
2023-02-15T04:52:03.607Z,25.33
2023-02-15T04:54:33.004Z,21.70
2023-02-15T04:57:03.546Z,28.10
2023-02-15T04:59:32.988Z,31.33
2023-02-15T05:02:02.086Z,28.92
2023-02-15T05:04:31.743Z,31.08
2023-02-15T05:07:01.006Z,25.90
2023-02-15T05:09:30.450Z,26.20
2023-02-15T05:11:59.560Z,27.17
2023-02-15T05:14:30.431Z,29.40
2023-02-15T05:17:02.020Z,24.30
2023-02-15T05:19:31.449Z,30.48
2023-02-15T05:22:00.479Z,28.10
2023-02-15T05:24:47.448Z,29.83
2023-02-15T05:27:34.157Z,28.10
2023-02-15T05:30:06.910Z,29.02
2023-02-15T05:32:36.232Z,29.55
2023-02-15T05:35:06.128Z,27.90
2023-02-15T05:37:35.410Z,25.15
2023-02-15T05:40:04.816Z,30.73
2023-02-15T05:42:34.039Z,28.38
2023-02-15T05:45:04.979Z,26.92
2023-02-15T05:47:35.508Z,34.30
2023-02-15T05:50:06.804Z,26.08
2023-02-15T05:52:36.123Z,28.13
2023-02-15T05:55:05.898Z,32.30
2023-02-15T05:57:34.999Z,35.13
2023-02-15T06:00:07.274Z,24.92
2023-02-15T06:02:43.667Z,26.05
2023-02-15T06:07:45.137Z,30.58
2023-02-15T06:10:14.942Z,31.60
2023-02-15T06:12:44.005Z,31.63
2023-02-15T06:15:15.161Z,31.77
2023-02-15T06:17:44.562Z,30.05
2023-02-15T06:20:14.829Z,29.88
2023-02-15T06:22:44.079Z,29.23
2023-02-15T06:25:13.655Z,26.65
2023-02-15T06:27:44.372Z,32.92
2023-02-15T06:30:16.874Z,24.58
2023-02-15T06:32:46.306Z,31.02
2023-02-15T06:35:15.714Z,30.63
2023-02-15T06:37:47.084Z,34.25
2023-02-15T06:40:17.187Z,33.92
2023-02-15T06:42:46.801Z,37.17
2023-02-15T06:45:17.740Z,40.78
2023-02-15T06:47:47.006Z,35.65
2023-02-15T06:50:16.534Z,38.25
2023-02-15T06:52:45.604Z,35.50
2023-02-15T06:55:16.715Z,33.03
2023-02-15T06:57:45.911Z,28.92
2023-02-15T07:00:18.718Z,29.10
2023-02-15T07:02:48.168Z,33.80
2023-02-15T07:05:17.732Z,32.25
2023-02-15T07:07:46.873Z,28.95
2023-02-15T07:10:16.740Z,32.40
2023-02-15T07:12:46.760Z,27.08
2023-02-15T07:15:21.730Z,35.05
2023-02-15T07:17:51.741Z,31.70
2023-02-15T07:20:23.225Z,30.30
2023-02-15T07:22:52.918Z,35.85
2023-02-15T07:27:57.389Z,32.15
2023-02-15T07:30:28.459Z,31.85
2023-02-15T07:33:15.366Z,25.58
2023-02-15T07:35:50.147Z,30.00
2023-02-15T07:38:19.614Z,27.27
2023-02-15T07:40:49.589Z,31.23
2023-02-15T07:43:18.935Z,38.15
2023-02-15T07:45:49.619Z,29.25
2023-02-15T07:48:19.107Z,33.88
2023-02-15T07:50:48.525Z,26.88
2023-02-15T07:53:17.567Z,27.73
2023-02-15T07:55:47.096Z,30.02
2023-02-15T07:58:16.190Z,32.00
2023-02-15T08:01:02.789Z,29.63
2023-02-15T08:03:33.360Z,30.60
2023-02-15T08:06:03.152Z,28.90
2023-02-15T08:08:32.996Z,28.17
2023-02-15T08:11:21.762Z,25.30
2023-02-15T08:13:57.159Z,24.23
2023-02-15T08:16:28.500Z,28.17
2023-02-15T08:19:00.179Z,33.05
2023-02-15T08:21:31.523Z,28.23
2023-02-15T08:24:01.500Z,24.23
2023-02-15T08:26:32.000Z,31.63
2023-02-15T08:29:01.775Z,32.33
2023-02-15T08:31:31.909Z,32.80
2023-02-15T08:36:33.871Z,26.38
2023-02-15T08:39:05.591Z,29.60
2023-02-15T08:41:37.106Z,29.45
2023-02-15T08:44:08.512Z,28.48
2023-02-15T08:46:40.103Z,25.13
2023-02-15T08:49:11.812Z,24.80
2023-02-15T08:51:41.894Z,28.27
2023-02-15T08:54:14.076Z,28.13
2023-02-15T08:56:46.087Z,30.27
2023-02-15T08:59:17.387Z,20.65
2023-02-15T09:01:48.456Z,28.25
2023-02-15T09:04:19.506Z,26.15
2023-02-15T09:06:50.872Z,24.75
2023-02-15T09:09:20.706Z,32.95
2023-02-15T09:11:57.918Z,28.83
2023-02-15T09:14:29.603Z,30.92
2023-02-15T09:16:59.489Z,29.55
2023-02-15T09:19:30.166Z,27.65
2023-02-15T09:21:59.931Z,25.77
2023-02-15T09:24:28.998Z,27.83
2023-02-15T09:26:58.402Z,31.73
2023-02-15T09:29:27.452Z,23.90
2023-02-15T09:31:58.488Z,24.60
2023-02-15T09:34:29.310Z,22.33
2023-02-15T09:36:58.739Z,25.85
2023-02-15T09:39:29.046Z,22.88
2023-02-15T09:42:18.572Z,26.02
2023-02-15T09:45:24.534Z,23.15
2023-02-15T09:48:22.338Z,26.05
2023-02-15T09:51:03.366Z,23.67
2023-02-15T09:54:02.051Z,32.63
2023-02-15T09:56:38.486Z,32.13
2023-02-15T09:59:19.258Z,26.33
2023-02-15T10:01:56.939Z,25.55
2023-02-15T10:04:46.827Z,30.60
2023-02-15T10:07:31.079Z,27.42
2023-02-15T10:10:16.128Z,22.42
2023-02-15T10:13:10.745Z,31.90
2023-02-15T10:16:09.241Z,28.15
2023-02-15T10:19:02.107Z,24.95
2023-02-15T10:21:46.291Z,35.65
2023-02-15T10:24:48.751Z,36.15
2023-02-15T10:27:23.289Z,31.85
2023-02-15T10:30:05.873Z,26.33
2023-02-15T10:32:44.394Z,27.30
2023-02-15T10:35:22.292Z,27.33
2023-02-15T10:38:08.273Z,29.05
2023-02-15T10:40:48.834Z,29.67
2023-02-15T10:43:34.247Z,31.98
2023-02-15T10:46:14.407Z,25.80
2023-02-15T10:49:20.371Z,25.35
2023-02-15T10:52:01.810Z,33.95
2023-02-15T10:54:38.639Z,30.88
2023-02-15T10:57:19.239Z,28.15
2023-02-15T11:00:05.328Z,32.92
2023-02-15T11:02:59.192Z,33.55
2023-02-15T11:05:40.070Z,34.00
2023-02-15T11:08:12.019Z,36.92
2023-02-15T11:10:45.738Z,28.02
2023-02-15T11:13:19.192Z,32.47
2023-02-15T11:15:55.529Z,36.17
2023-02-15T11:18:31.281Z,33.38
2023-02-15T11:21:04.815Z,30.70
2023-02-15T11:23:37.460Z,35.88
2023-02-15T11:26:14.359Z,30.58
2023-02-15T11:28:51.324Z,30.88
2023-02-15T11:31:24.198Z,30.77
2023-02-15T11:33:59.087Z,29.58
2023-02-15T11:36:33.976Z,34.63
2023-02-15T11:39:07.155Z,31.13
2023-02-15T11:41:42.831Z,36.17
2023-02-15T11:44:20.127Z,35.38
2023-02-15T11:46:49.751Z,41.65
2023-02-15T11:49:27.455Z,35.22
2023-02-15T11:51:59.232Z,32.08
2023-02-15T11:54:31.328Z,35.70
2023-02-15T11:57:14.650Z,32.60
2023-02-15T11:59:49.283Z,35.28
2023-02-15T12:02:21.701Z,36.40
2023-02-15T12:04:54.682Z,30.88
2023-02-15T12:07:28.656Z,36.58
2023-02-15T12:10:08.086Z,32.85
2023-02-15T12:12:39.195Z,38.60
2023-02-15T12:15:12.875Z,31.70
2023-02-15T12:17:51.282Z,36.60
2023-02-15T12:20:31.496Z,33.15
2023-02-15T12:23:04.679Z,37.05
2023-02-15T12:25:39.547Z,30.17
2023-02-15T12:28:29.199Z,31.33
2023-02-15T12:31:01.160Z,32.45
2023-02-15T12:33:35.567Z,32.75
2023-02-15T12:36:12.780Z,36.00
2023-02-15T12:38:42.579Z,35.05
2023-02-15T12:41:26.534Z,30.27
2023-02-15T12:44:14.372Z,31.33
2023-02-15T12:46:58.133Z,32.95
2023-02-15T12:49:28.257Z,28.50
2023-02-15T12:51:58.991Z,29.02
2023-02-15T12:54:39.728Z,30.90
2023-02-15T12:57:26.317Z,32.33
2023-02-15T12:59:58.374Z,34.50
2023-02-15T13:02:33.513Z,34.10
2023-02-15T13:05:17.464Z,32.47
2023-02-15T13:07:51.306Z,29.13
2023-02-15T13:10:32.403Z,34.65
2023-02-15T13:13:03.887Z,30.73
2023-02-15T13:15:39.368Z,32.72
2023-02-15T13:18:16.512Z,33.60
2023-02-15T13:20:48.710Z,37.35
2023-02-15T13:23:29.334Z,32.75
2023-02-15T13:26:03.190Z,32.50
2023-02-15T13:28:41.987Z,37.38
2023-02-15T13:31:17.627Z,36.33
2023-02-15T13:33:52.345Z,33.65
2023-02-15T13:36:31.354Z,32.10
2023-02-15T13:39:22.470Z,31.02
2023-02-15T13:42:00.530Z,34.72
2023-02-15T13:44:53.065Z,34.45
2023-02-15T13:47:28.778Z,43.90
2023-02-15T13:50:17.870Z,33.17
2023-02-15T13:52:57.097Z,32.67
2023-02-15T13:55:37.189Z,32.63
2023-02-15T13:58:45.201Z,37.20
2023-02-15T14:01:22.499Z,33.45
2023-02-15T14:04:37.193Z,31.38
2023-02-15T14:07:33.433Z,33.97
2023-02-15T14:10:25.153Z,35.72
2023-02-15T14:13:26.477Z,32.00
2023-02-15T14:16:01.232Z,35.00
2023-02-15T14:18:38.261Z,36.13
2023-02-15T14:21:12.833Z,34.85
2023-02-15T14:23:59.280Z,37.83
2023-02-15T14:26:38.616Z,42.38
2023-02-15T14:29:21.227Z,31.67
2023-02-15T14:31:54.948Z,37.05
2023-02-15T14:34:30.242Z,37.30
2023-02-15T14:37:00.457Z,37.30
2023-02-15T14:39:56.443Z,37.75
2023-02-15T14:42:33.603Z,45.20
2023-02-15T14:45:07.800Z,43.15
2023-02-15T14:47:42.933Z,39.97
2023-02-15T14:50:40.632Z,42.45
2023-02-15T14:53:46.771Z,43.78
2023-02-15T14:56:24.629Z,39.08
2023-02-15T14:59:17.326Z,46.55
2023-02-15T15:01:59.492Z,45.45
2023-02-15T15:04:34.687Z,40.30
2023-02-15T15:07:11.433Z,45.55
2023-02-15T15:09:42.710Z,42.72
2023-02-15T15:12:41.082Z,41.58
2023-02-15T15:15:17.077Z,47.97
2023-02-15T15:18:02.535Z,51.40
2023-02-15T15:20:46.617Z,47.42
2023-02-15T15:23:52.284Z,47.13
2023-02-15T15:26:37.836Z,50.38
2023-02-15T15:29:09.555Z,44.80
2023-02-15T15:31:48.226Z,47.35
2023-02-15T15:34:38.141Z,45.60
2023-02-15T15:37:42.698Z,47.90
2023-02-15T15:40:57.420Z,48.70
2023-02-15T15:44:03.530Z,44.65
2023-02-15T15:46:59.436Z,48.97
2023-02-15T15:49:33.278Z,46.80
2023-02-15T15:52:04.519Z,43.97
2023-02-15T15:54:34.175Z,51.70
2023-02-15T15:57:07.344Z,47.65
2023-02-15T15:59:37.510Z,50.75
2023-02-15T16:02:09.680Z,40.65
2023-02-15T16:04:39.410Z,45.78
2023-02-15T16:07:28.375Z,48.22
2023-02-15T16:10:00.076Z,50.67
2023-02-15T16:12:33.073Z,52.42
2023-02-15T16:15:12.626Z,44.72
2023-02-15T16:17:47.432Z,53.47
2023-02-15T16:20:20.592Z,49.45
2023-02-15T16:22:53.829Z,54.72
2023-02-15T16:25:43.079Z,53.65
2023-02-15T16:28:19.475Z,50.80
2023-02-15T16:30:57.339Z,51.55
2023-02-15T16:33:39.024Z,61.95
2023-02-15T16:36:12.703Z,57.72
2023-02-15T16:39:10.345Z,58.47
2023-02-15T16:41:40.292Z,52.40
2023-02-15T16:46:47.542Z,58.47
2023-02-15T16:49:22.344Z,65.57
2023-02-15T16:51:59.335Z,60.83
2023-02-15T16:54:30.925Z,59.10
2023-02-15T16:57:00.877Z,71.28
2023-02-15T16:59:36.371Z,66.75
2023-02-15T17:02:31.988Z,61.17
2023-02-15T17:05:18.608Z,66.88
2023-02-15T17:08:07.635Z,71.90
2023-02-15T17:10:38.410Z,63.90
2023-02-15T17:13:23.838Z,71.15
2023-02-15T17:16:34.277Z,73.88
2023-02-15T17:19:10.145Z,67.78
2023-02-15T17:21:47.271Z,75.95
2023-02-15T17:24:22.619Z,74.78
2023-02-15T17:27:00.776Z,80.35
2023-02-15T17:29:36.405Z,74.50
2023-02-15T17:32:07.126Z,71.88
2023-02-15T17:34:53.505Z,72.97
2023-02-15T17:37:30.875Z,74.80
2023-02-15T17:40:03.032Z,86.88
2023-02-15T17:42:33.285Z,91.60
2023-02-15T17:45:08.006Z,78.07
2023-02-15T17:47:42.159Z,86.57
2023-02-15T17:50:22.263Z,86.32
2023-02-15T17:52:57.666Z,80.70
2023-02-15T17:55:43.713Z,85.32
2023-02-15T17:58:14.767Z,80.63
2023-02-15T18:01:06.664Z,81.47
2023-02-15T18:04:01.194Z,83.10
2023-02-15T18:06:48.912Z,74.35
2023-02-15T18:09:38.516Z,84.43
2023-02-15T18:12:24.300Z,70.22
2023-02-15T18:14:58.296Z,85.13
2023-02-15T18:17:34.067Z,78.45
2023-02-15T18:20:07.858Z,82.57
2023-02-15T18:22:39.809Z,94.32
2023-02-15T18:25:15.147Z,81.95
2023-02-15T18:27:47.504Z,77.35
2023-02-15T18:30:19.314Z,73.90
2023-02-15T18:32:55.011Z,83.60
2023-02-15T18:35:27.743Z,86.65
2023-02-15T18:37:59.903Z,75.28
2023-02-15T18:40:31.482Z,75.72
2023-02-15T18:43:03.562Z,82.43
2023-02-15T18:45:33.419Z,92.93
2023-02-15T18:48:03.320Z,87.07
2023-02-15T18:50:36.057Z,90.25
2023-02-15T18:53:08.222Z,83.10
2023-02-15T18:55:40.344Z,86.78
2023-02-15T18:58:17.611Z,89.03
2023-02-15T19:00:48.882Z,78.20
2023-02-15T19:03:19.228Z,83.68
2023-02-15T19:05:49.191Z,79.65
2023-02-15T19:08:24.753Z,76.93
2023-02-15T19:10:55.578Z,93.07
2023-02-15T19:13:25.269Z,81.40
2023-02-15T19:15:54.502Z,90.00
2023-02-15T19:18:28.585Z,91.43
2023-02-15T19:20:57.899Z,78.03
2023-02-15T19:23:27.781Z,78.00
2023-02-15T19:25:58.559Z,69.03
2023-02-15T19:28:34.163Z,76.47
2023-02-15T19:31:03.668Z,84.20
2023-02-15T19:33:33.359Z,66.10
2023-02-15T19:36:02.772Z,81.22
2023-02-15T19:38:41.041Z,84.72
2023-02-15T19:41:22.097Z,83.35
2023-02-15T19:43:56.118Z,80.38
2023-02-15T19:46:26.802Z,87.38
2023-02-15T19:48:56.800Z,90.60
2023-02-15T19:51:26.780Z,81.80
2023-02-15T19:53:59.754Z,63.70
2023-02-15T19:56:32.205Z,64.25
2023-02-15T19:59:02.713Z,81.90
2023-02-15T20:01:33.211Z,78.32
2023-02-15T20:04:09.883Z,85.25
2023-02-15T20:06:40.463Z,93.60
2023-02-15T20:09:21.215Z,87.28
2023-02-15T20:11:52.475Z,78.03
2023-02-15T20:14:24.579Z,90.85
2023-02-15T20:16:56.053Z,87.60
2023-02-15T20:21:55.734Z,84.80
2023-02-15T20:24:30.167Z,101.05
2023-02-15T20:27:01.878Z,91.30
2023-02-15T20:29:34.058Z,94.05
2023-02-15T20:32:03.810Z,95.05
2023-02-15T20:34:33.272Z,97.45
2023-02-15T20:37:02.521Z,98.93
2023-02-15T20:39:35.127Z,99.75
2023-02-15T20:42:06.318Z,84.80
2023-02-15T20:44:36.076Z,107.70
2023-02-15T20:47:08.617Z,102.80
2023-02-15T20:49:38.679Z,101.57
2023-02-15T20:52:22.171Z,100.38
2023-02-15T20:54:52.016Z,104.47
2023-02-15T20:57:23.016Z,108.72
2023-02-15T20:59:52.475Z,107.05
2023-02-15T21:02:24.010Z,97.60
2023-02-15T21:04:55.474Z,104.30
2023-02-15T21:07:26.304Z,92.95
2023-02-15T21:09:55.861Z,109.78
2023-02-15T21:12:27.465Z,105.60
2023-02-15T21:14:56.974Z,102.25
2023-02-15T21:17:26.758Z,100.68
2023-02-15T21:19:56.523Z,100.53
2023-02-15T21:22:25.601Z,108.03
2023-02-15T21:24:55.812Z,109.40
2023-02-15T21:27:28.471Z,97.20
2023-02-15T21:29:57.960Z,104.60
2023-02-15T21:32:27.081Z,105.05
2023-02-15T21:34:56.825Z,103.95
2023-02-15T21:37:31.646Z,101.28
2023-02-15T21:40:07.368Z,116.72
2023-02-15T21:42:58.218Z,104.13
2023-02-15T21:45:45.000Z,107.32
2023-02-15T21:48:14.209Z,103.50
2023-02-15T21:51:01.974Z,98.97
2023-02-15T21:53:35.122Z,108.63
2023-02-15T21:56:08.723Z,98.72
2023-02-15T21:58:39.373Z,103.60
2023-02-15T22:01:17.725Z,111.50
2023-02-15T22:03:47.728Z,107.15
2023-02-15T22:06:17.264Z,102.60
2023-02-15T22:08:48.026Z,100.47
2023-02-15T22:11:20.834Z,106.28
2023-02-15T22:13:52.076Z,98.40
2023-02-15T22:16:23.908Z,112.43
2023-02-15T22:18:53.197Z,113.28
2023-02-15T22:21:22.505Z,115.05
2023-02-15T22:23:51.673Z,106.82
2023-02-15T22:26:24.544Z,108.97
2023-02-15T22:28:55.339Z,112.00
2023-02-15T22:31:25.327Z,109.43
2023-02-15T22:33:55.386Z,108.43
2023-02-15T22:36:26.990Z,115.82
2023-02-15T22:38:57.488Z,106.93
2023-02-15T22:41:30.215Z,108.78
2023-02-15T22:44:00.881Z,113.95
2023-02-15T22:46:30.682Z,115.70
2023-02-15T22:48:59.709Z,116.78
2023-02-15T22:51:30.678Z,110.80
2023-02-15T22:53:59.988Z,125.47
2023-02-15T22:56:38.040Z,107.88
2023-02-15T22:59:15.162Z,115.32
2023-02-15T23:01:44.923Z,102.20
2023-02-15T23:04:18.389Z,107.47
2023-02-15T23:06:48.616Z,105.22
2023-02-15T23:11:47.371Z,104.55
2023-02-15T23:14:27.550Z,104.32
2023-02-15T23:16:57.412Z,119.45
2023-02-15T23:19:26.741Z,115.80
2023-02-15T23:21:56.180Z,98.30
2023-02-15T23:24:27.823Z,102.97
2023-02-15T23:27:18.811Z,111.40
2023-02-15T23:29:49.344Z,110.68
2023-02-15T23:32:20.481Z,92.25
2023-02-15T23:34:49.691Z,75.82
2023-02-15T23:37:19.212Z,108.50
2023-02-15T23:40:06.048Z,104.22
2023-02-15T23:42:37.184Z,119.30
2023-02-15T23:45:19.578Z,123.47
2023-02-15T23:48:07.606Z,104.10
2023-02-15T23:50:36.890Z,108.95
2023-02-15T23:53:06.357Z,112.60
2023-02-15T23:55:37.539Z,112.25
2023-02-15T23:58:08.500Z,109.32
